Osg Vision — WDF2493 — position and weather

sailwx.info

Track history (hours):
 
Tides and Currents Weather Stations Pressure Air Temp Water Temp Dewpoint Dewpoint Depression Visibility Wind Speed Wind Dir Waves Ship Positions

Osg Vision

Owner: OSG Ship Management Inc., Tampa, FL. More information available from US FCC via Universal Licensing System and Coast Guard Vessel Documentation Center.

Last reported at 2018-May-26 04:00 UTC. Time now 2018-May-26 04:06 UTC.
Position N 39°30' W 075°33'.

Length 213 m; draft 7.9 m.

Type: Tanker. MMSI: 369235000.

Date/timePositionNaut miles runAvg speedWind from/ knotsBaromVisibWave heightAir tempDewpointWater temp
2018-May-26 04:00N 39°30' W 075°33'611.1
2018-May-26 03:30N 39°36' W 075°34'5 9.3
2018-May-26 03:00N 39°40' W 075°32'510.1
2018-May-26 02:30N 39°45' W 075°30'5 9.3
2018-May-26 02:00N 39°48' W 075°25'1 1.7
2018-May-26 01:28N 39°49' W 075°24'0 0.0
2018-May-26 00:55N 39°49' W 075°24'0 0.0
2018-May-26 00:28N 39°49' W 075°24'0 0.0
2018-May-25 23:58N 39°49' W 075°24'0 0.0
2018-May-25 23:28N 39°49' W 075°24'0 0.0
2018-May-25 22:58N 39°49' W 075°24'0 0.0
2018-May-25 22:28N 39°49' W 075°24'0 0.0
2018-May-25 21:58N 39°49' W 075°24'0 0.0
2018-May-25 21:28N 39°49' W 075°24'0 0.0
2018-May-25 20:58N 39°49' W 075°24'0 0.0
2018-May-25 20:28N 39°49' W 075°24'0 0.0
2018-May-25 19:58N 39°49' W 075°24'0 0.0
2018-May-25 19:28N 39°49' W 075°24'0 0.0
2018-May-25 18:55N 39°49' W 075°24'0 0.0
2018-May-25 18:28N 39°49' W 075°24'0 0.0
2018-May-25 17:58N 39°49' W 075°24'0 0.0
2018-May-25 17:25N 39°49' W 075°24'0 0.0
2018-May-25 16:52N 39°49' W 075°24'0 0.0
2018-May-25 16:28N 39°49' W 075°24'0 0.2
2018-May-25 16:00N 39°49' W 075°25'3 5.6
2018-May-25 15:30N 39°47' W 075°27'510.7
2018-May-25 15:00N 39°42' W 075°31'610.9
2018-May-25 14:30N 39°38' W 075°35'611.0
2018-May-25 14:00N 39°32' W 075°33'611.2
2018-May-25 13:30N 39°27' W 075°33'612.0
2018-May-25 13:00N 39°22' W 075°28'612.1
2018-May-25 12:30N 39°18' W 075°22'612.0
2018-May-25 12:00N 39°13' W 075°18'611.8
2018-May-25 11:31N 39°08' W 075°14'611.6
2018-May-25 11:01N 39°03' W 075°10'612.1
2018-May-25 10:30N 38°57' W 075°07'2 4.9
2018-May-25 10:00N 38°55' W 075°09'2 4.1
2018-May-25 09:30N 38°57' W 075°11'0 0.0
2018-May-25 08:51N 38°57' W 075°11'0 0.0
2018-May-25 08:30N 38°57' W 075°11'0 0.0
2018-May-25 08:00N 38°57' W 075°11'0 0.0
2018-May-25 07:27N 38°57' W 075°11'0 0.0
2018-May-25 06:57N 38°57' W 075°11'0 0.3
2018-May-25 06:30N 38°57' W 075°10'0 0.4
2018-May-25 05:48N 38°57' W 075°10'0 0.1
2018-May-25 05:30N 38°57' W 075°10'0 0.0
2018-May-25 05:00N 38°57' W 075°10'0 0.0
2018-May-25 04:30N 38°57' W 075°10'0 0.0
2018-May-25 04:00N 38°57' W 075°10'0 0.0
2018-May-25 03:27N 38°57' W 075°10'0 0.1
2018-May-25 03:00N 38°57' W 075°10'0 0.1
2018-May-25 02:30N 38°57' W 075°10'2 3.8
2018-May-25 02:00N 38°55' W 075°09'3 5.9
2018-May-25 01:30N 38°58' W 075°07'612.5
2018-May-25 01:00N 39°04' W 075°11'611.8
2018-May-25 00:30N 39°09' W 075°15'511.0
2018-May-25 00:00N 39°14' W 075°18'5 9.9
2018-May-24 23:30N 39°17' W 075°22'4 7.8
2018-May-24 23:00N 39°20' W 075°26'4 8.6
2018-May-24 22:30N 39°24' W 075°29'4 8.8
2018-May-24 22:01N 39°27' W 075°33'4 8.2
2018-May-24 21:31N 39°31' W 075°33'4 7.8
2018-May-24 21:00N 39°35' W 075°35'1 1.1
2018-May-24 20:31N 39°35' W 075°35'0 0.0
2018-May-24 19:59N 39°35' W 075°35'0 0.0
2018-May-24 19:29N 39°35' W 075°35'0 0.0
2018-May-24 18:59N 39°35' W 075°35'0 0.0
2018-May-24 18:29N 39°35' W 075°35'0 0.0
2018-May-24 17:59N 39°35' W 075°35'0 0.0
2018-May-24 17:29N 39°35' W 075°35'0 0.0
2018-May-24 16:59N 39°35' W 075°35'0 0.0
2018-May-24 16:29N 39°35' W 075°35'0 0.0
2018-May-24 15:59N 39°35' W 075°35'0 0.0
2018-May-24 15:29N 39°35' W 075°35'0 0.0
2018-May-24 14:59N 39°35' W 075°35'0 0.0
2018-May-24 14:29N 39°35' W 075°35'0 0.0
2018-May-24 13:59N 39°35' W 075°35'0 0.0
2018-May-24 13:29N 39°35' W 075°35'0 0.0
2018-May-24 08:59N 39°35' W 075°35'0 0.0
2018-May-24 08:29N 39°35' W 075°35'0 0.0
2018-May-24 07:59N 39°35' W 075°35'0 0.0
2018-May-24 07:29N 39°35' W 075°35'0 0.0
2018-May-24 06:59N 39°35' W 075°35'0 0.0
2018-May-24 06:29N 39°35' W 075°35'0 0.0
2018-May-24 05:59N 39°35' W 075°35'0 0.0
2018-May-24 05:29N 39°35' W 075°35'0 0.0
2018-May-24 04:59N 39°35' W 075°35'0 0.0
2018-May-24 04:29N 39°35' W 075°35'0 0.0
2018-May-24 03:59N 39°35' W 075°35'0 0.0
2018-May-24 03:29N 39°35' W 075°35'0 0.0
2018-May-24 02:59N 39°35' W 075°35'0 0.0
2018-May-24 02:29N 39°35' W 075°35'0 0.0
2018-May-24 01:59N 39°35' W 075°35'0 0.0
2018-May-24 01:30N 39°35' W 075°35'3 5.1
2018-May-24 01:00N 39°33' W 075°33'510.1
2018-May-24 00:30N 39°28' W 075°34'510.0
2018-May-24 00:00N 39°24' W 075°30'510.8
2018-May-23 23:30N 39°20' W 075°25'611.1
2018-May-23 23:00N 39°16' W 075°21'611.1
2018-May-23 22:30N 39°12' W 075°17'510.9
2018-May-23 22:01N 39°07' W 075°13'510.9
2018-May-23 21:30N 39°02' W 075°10'611.3
2018-May-23 21:00N 38°57' W 075°07'2 2.8
2018-May-23 20:16N 38°55' W 075°08'0 0.0
2018-May-23 20:00N 38°55' W 075°08'0 0.0
2018-May-23 19:28N 38°55' W 075°08'0 0.0
2018-May-23 18:55N 38°55' W 075°08'0 0.0
2018-May-23 18:28N 38°55' W 075°08'0 0.1
2018-May-23 17:55N 38°55' W 075°08'0 0.1
2018-May-23 17:16N 38°55' W 075°08'0 0.3
2018-May-23 16:58N 38°55' W 075°09'0 0.2
2018-May-23 16:28N 38°55' W 075°08'0 0.2
2018-May-23 15:58N 38°55' W 075°08'0 0.1
2018-May-23 15:16N 38°55' W 075°08'0 0.0
2018-May-23 14:58N 38°55' W 075°08'0 0.0
2018-May-23 14:28N 38°55' W 075°08'0 0.0
2018-May-23 13:58N 38°55' W 075°08'1 1.7
2018-May-23 13:30N 38°55' W 075°09'24 2.2
2018-May-23 02:43N 39°17' W 075°22'312.4
2018-May-23 02:30N 39°19' W 075°24'612.1
2018-May-23 02:00N 39°23' W 075°29'611.7
2018-May-23 01:29N 39°28' W 075°34'511.3
2018-May-23 01:01N 39°34' W 075°33'5 9.8
2018-May-23 00:30N 39°38' W 075°34'510.2
2018-May-23 00:00N 39°43' W 075°30'5 9.6
2018-May-22 23:31N 39°47' W 075°27'5 9.4
2018-May-22 23:00N 39°50' W 075°22'4 8.7
2018-May-22 22:31N 39°51' W 075°17'3 6.6
2018-May-22 22:00N 39°52' W 075°13'0 0.0
2018-May-22 21:30N 39°52' W 075°13'0 0.0
2018-May-22 20:59N 39°52' W 075°13'0 0.0
2018-May-22 20:29N 39°52' W 075°13'0 0.0
2018-May-22 19:59N 39°52' W 075°13'0 0.0
2018-May-22 19:29N 39°52' W 075°13'0 0.0
2018-May-22 18:59N 39°52' W 075°13'0 0.0
2018-May-22 18:29N 39°52' W 075°13'0 0.0
2018-May-22 17:59N 39°52' W 075°13'0 0.0
2018-May-22 17:29N 39°52' W 075°13'0 0.0
2018-May-22 16:59N 39°52' W 075°13'0 0.0
2018-May-22 16:29N 39°52' W 075°13'0 0.0
2018-May-22 15:59N 39°52' W 075°13'0 0.0
2018-May-22 15:29N 39°52' W 075°13'0 0.0
2018-May-22 14:59N 39°52' W 075°13'0 0.0
2018-May-22 14:29N 39°52' W 075°13'0 0.0
2018-May-22 13:59N 39°52' W 075°13'0 0.0
2018-May-22 13:29N 39°52' W 075°13'0 0.0
2018-May-22 12:59N 39°52' W 075°13'0 0.0
2018-May-22 12:29N 39°52' W 075°13'0 0.0
2018-May-22 11:59N 39°52' W 075°13'0 0.0
2018-May-22 11:29N 39°52' W 075°13'0 0.0
2018-May-22 10:59N 39°52' W 075°13'0 0.0
2018-May-22 10:29N 39°52' W 075°13'0 0.0
2018-May-22 09:59N 39°52' W 075°13'0 0.0
2018-May-22 09:29N 39°52' W 075°13'0 0.0
2018-May-22 08:59N 39°52' W 075°13'0 0.0
2018-May-22 08:29N 39°52' W 075°13'0 0.0
2018-May-22 07:59N 39°52' W 075°13'0 0.0
2018-May-22 07:29N 39°52' W 075°13'0 0.0
2018-May-22 06:59N 39°52' W 075°13'0 0.0
2018-May-22 06:29N 39°52' W 075°13'0 0.0
2018-May-22 05:59N 39°52' W 075°13'0 0.0
2018-May-22 05:29N 39°52' W 075°13'0 0.0
2018-May-22 04:59N 39°52' W 075°13'0 0.0
2018-May-22 04:29N 39°52' W 075°13'0 0.0
2018-May-22 03:59N 39°52' W 075°13'0 0.0
2018-May-22 03:29N 39°52' W 075°13'0 0.0
2018-May-22 02:59N 39°52' W 075°13'0 0.0
2018-May-22 02:29N 39°52' W 075°13'0 0.1
2018-May-22 02:00N 39°52' W 075°13'2 3.7
2018-May-22 01:30N 39°51' W 075°15'3 5.8
2018-May-22 01:00N 39°51' W 075°19'5 9.8
2018-May-22 00:30N 39°49' W 075°24'510.1
2018-May-22 00:00N 39°45' W 075°29'510.6
2018-May-21 23:31N 39°40' W 075°32'5 9.4
2018-May-21 23:01N 39°36' W 075°34'510.7
2018-May-21 22:30N 39°30' W 075°33'510.2
2018-May-21 21:59N 39°25' W 075°31'611.5
2018-May-21 21:30N 39°21' W 075°27'611.5
2018-May-21 21:00N 39°17' W 075°22'611.2
2018-May-21 20:30N 39°13' W 075°17'611.1
2018-May-21 20:01N 39°08' W 075°14'611.0
2018-May-21 19:31N 39°03' W 075°10'611.7
2018-May-21 19:01N 38°58' W 075°07'3 3.3
2018-May-21 18:11N 38°56' W 075°09'0 0.1
2018-May-21 12:43N 38°55' W 075°09'0 0.0
2018-May-21 12:16N 38°55' W 075°09'0 0.1
2018-May-21 11:46N 38°55' W 075°09'0 0.0
2018-May-21 10:37N 38°55' W 075°09'0 0.2
2018-May-21 10:18N 38°55' W 075°09'0 0.2
2018-May-21 10:00N 38°55' W 075°09'0 0.6
2018-May-21 09:30N 38°55' W 075°09'2 5.0
2018-May-21 09:00N 38°56' W 075°06'612.3
2018-May-21 08:30N 39°02' W 075°09'611.4
2018-May-21 08:00N 39°07' W 075°13'510.6
2018-May-21 07:30N 39°11' W 075°17'5 9.4
2018-May-21 07:00N 39°15' W 075°19'4 9.0
2018-May-21 06:30N 39°19' W 075°23'4 8.8
2018-May-21 06:00N 39°22' W 075°27'5 9.0
2018-May-21 05:30N 39°25' W 075°31'4 8.9
2018-May-21 05:00N 39°29' W 075°34'510.1
2018-May-21 04:30N 39°34' W 075°33'5 9.8
2018-May-21 04:00N 39°39' W 075°33'611.8
2018-May-21 03:30N 39°44' W 075°30'612.1
2018-May-21 03:00N 39°49' W 075°24'612.2
2018-May-21 02:30N 39°51' W 075°17'1 1.2
2018-May-21 02:00N 39°51' W 075°16'0 0.0
2018-May-21 01:30N 39°51' W 075°16'0 0.0
2018-May-21 01:00N 39°51' W 075°16'0 0.0
2018-May-21 00:30N 39°51' W 075°16'0 0.0
2018-May-21 00:00N 39°51' W 075°16'0 0.0
2018-May-20 23:30N 39°51' W 075°16'0 0.0
2018-May-20 23:00N 39°51' W 075°16'0 0.0
2018-May-20 22:30N 39°51' W 075°16'0 0.0
2018-May-20 22:00N 39°51' W 075°16'0 0.0
2018-May-20 21:31N 39°51' W 075°16'0 0.0
2018-May-20 21:00N 39°51' W 075°16'0 0.0
2018-May-20 20:30N 39°51' W 075°16'0 0.0
2018-May-20 20:00N 39°51' W 075°16'0 0.0
2018-May-20 19:30N 39°51' W 075°16'0 0.0
2018-May-20 19:00N 39°51' W 075°16'0 0.0
2018-May-20 18:30N 39°51' W 075°16'0 0.0
2018-May-20 18:00N 39°51' W 075°16'0 0.0
2018-May-20 17:30N 39°51' W 075°16'0 0.0
2018-May-20 17:00N 39°51' W 075°16'0 0.0
2018-May-20 16:30N 39°51' W 075°16'0 0.0
2018-May-20 16:00N 39°51' W 075°16'0 0.0
2018-May-20 15:30N 39°51' W 075°16'0 0.0
2018-May-20 15:00N 39°51' W 075°16'0 0.0
2018-May-20 14:30N 39°51' W 075°16'0 0.0
2018-May-20 14:00N 39°51' W 075°16'0 0.0
2018-May-20 13:30N 39°51' W 075°16'0 0.0
2018-May-20 13:01N 39°51' W 075°16'0 0.0
2018-May-20 12:31N 39°51' W 075°16'0 0.0
2018-May-20 12:00N 39°51' W 075°16'0 0.1
2018-May-20 11:30N 39°51' W 075°16'2 4.9
2018-May-20 11:00N 39°51' W 075°19'5 9.7
2018-May-20 10:30N 39°48' W 075°25'510.4
2018-May-20 10:00N 39°45' W 075°30'510.7
2018-May-20 09:30N 39°40' W 075°32'5 9.3
2018-May-20 09:00N 39°35' W 075°34'510.6
2018-May-20 08:30N 39°30' W 075°33'510.1
2018-May-20 08:00N 39°25' W 075°31'611.1
2018-May-20 07:30N 39°21' W 075°26'611.6
2018-May-20 07:00N 39°17' W 075°21'611.8
2018-May-20 06:30N 39°12' W 075°17'611.5
2018-May-20 06:00N 39°07' W 075°13'611.3
2018-May-20 05:30N 39°02' W 075°10'611.5
2018-May-20 05:00N 38°57' W 075°07'2 3.7
2018-May-20 04:26N 38°55' W 075°08'1 2.0
2018-May-20 03:58N 38°56' W 075°09'0 0.0
2018-May-20 03:30N 38°55' W 075°09'0 0.0
2018-May-20 02:27N 38°55' W 075°09'0 0.1
2018-May-20 00:21N 38°55' W 075°09'2 5.5
2018-May-19 23:56N 38°57' W 075°10'0 0.8
2018-May-19 23:28N 38°57' W 075°11'0 0.1
2018-May-19 16:01N 38°58' W 075°11'0 0.3
2018-May-19 16:00N 38°58' W 075°11'1 1.2
2018-May-19 15:30N 38°58' W 075°11'510.0
2018-May-19 15:00N 38°55' W 075°07'4 8.0
2018-May-19 14:30N 38°59' W 075°08'5 9.6
2018-May-19 14:00N 39°03' W 075°10'510.1
2018-May-19 13:30N 39°07' W 075°13'510.9
2018-May-19 13:00N 39°12' W 075°17'612.4
2018-May-19 12:30N 39°17' W 075°22'713.3
2018-May-19 12:00N 39°22' W 075°28'713.5
2018-May-19 11:30N 39°27' W 075°33'612.8
2018-May-19 11:00N 39°34' W 075°33'2 4.8
2018-May-19 10:29N 39°35' W 075°35'0 0.0
2018-May-19 09:59N 39°35' W 075°35'0 0.0
2018-May-19 09:29N 39°35' W 075°35'0 0.0
2018-May-19 08:59N 39°35' W 075°35'0 0.0
2018-May-19 08:29N 39°35' W 075°35'0 0.0
2018-May-19 07:59N 39°35' W 075°35'0 0.0
2018-May-19 07:29N 39°35' W 075°35'0 0.0
2018-May-19 06:59N 39°35' W 075°35'0 0.0
2018-May-19 06:29N 39°35' W 075°35'0 0.0
2018-May-19 05:59N 39°35' W 075°35'0 0.0
2018-May-19 05:29N 39°35' W 075°35'0 0.0
2018-May-19 04:59N 39°35' W 075°35'0 0.0
2018-May-19 04:29N 39°35' W 075°35'0 0.0
2018-May-19 03:59N 39°35' W 075°35'0 0.0
2018-May-19 03:29N 39°35' W 075°35'0 0.0
2018-May-19 02:59N 39°35' W 075°35'0 0.0
2018-May-19 02:30N 39°35' W 075°35'0 0.0
2018-May-19 01:59N 39°35' W 075°35'0 0.0
2018-May-19 01:30N 39°35' W 075°35'0 0.0
2018-May-19 00:59N 39°35' W 075°35'0 0.0
2018-May-19 00:29N 39°35' W 075°35'0 0.0
2018-May-18 23:59N 39°35' W 075°35'0 0.0
2018-May-18 23:30N 39°35' W 075°35'0 0.0
2018-May-18 22:59N 39°35' W 075°35'0 0.0
2018-May-18 22:29N 39°35' W 075°35'0 0.0
2018-May-18 22:00N 39°35' W 075°35'0 0.0
2018-May-18 21:29N 39°35' W 075°35'0 0.0
2018-May-18 20:59N 39°35' W 075°35'0 0.0
2018-May-18 20:30N 39°35' W 075°35'0 0.0
2018-May-18 19:59N 39°35' W 075°35'0 0.0
2018-May-18 19:29N 39°35' W 075°35'0 0.0
2018-May-18 18:59N 39°35' W 075°35'0 0.0
2018-May-18 18:29N 39°35' W 075°35'0 0.0
2018-May-18 17:59N 39°35' W 075°35'0 0.0
2018-May-18 17:29N 39°35' W 075°35'0 0.0
2018-May-18 16:59N 39°35' W 075°35'0 0.0
2018-May-18 16:29N 39°35' W 075°35'0 0.0
2018-May-18 15:59N 39°35' W 075°35'0 0.0
2018-May-18 15:29N 39°35' W 075°35'0 0.0
2018-May-18 14:59N 39°35' W 075°35'0 0.0
2018-May-18 14:29N 39°35' W 075°35'0 0.0
2018-May-18 13:59N 39°35' W 075°35'0 0.0
2018-May-18 13:29N 39°35' W 075°35'0 0.0
2018-May-18 12:59N 39°35' W 075°35'0 0.0
2018-May-18 12:29N 39°35' W 075°35'0 0.0
2018-May-18 11:59N 39°35' W 075°35'0 0.0
2018-May-18 11:29N 39°35' W 075°35'0 0.0
2018-May-18 10:59N 39°35' W 075°35'0 0.0
2018-May-18 10:29N 39°35' W 075°35'0 0.0
2018-May-18 09:59N 39°35' W 075°35'0 0.0
2018-May-18 09:29N 39°35' W 075°35'0 0.0
2018-May-18 08:59N 39°35' W 075°35'0 0.0
2018-May-18 08:29N 39°35' W 075°35'0 0.2
2018-May-18 08:00N 39°35' W 075°35'2 4.9
2018-May-18 07:30N 39°33' W 075°33'4 7.1
2018-May-18 07:00N 39°30' W 075°33'4 9.0
2018-May-18 06:30N 39°26' W 075°32'510.1
2018-May-18 06:00N 39°22' W 075°27'510.7
2018-May-18 05:30N 39°18' W 075°23'611.3
2018-May-18 05:00N 39°14' W 075°18'611.2
2018-May-18 04:30N 39°09' W 075°14'510.8
2018-May-18 04:00N 39°04' W 075°11'510.8
2018-May-18 03:30N 38°59' W 075°08'5 7.9
2018-May-18 02:55N 38°55' W 075°08'1 1.9
2018-May-18 02:25N 38°55' W 075°08'0 0.0
2018-May-18 01:52N 38°55' W 075°08'0 0.0
2018-May-18 01:25N 38°55' W 075°08'0 0.0
2018-May-17 22:46N 38°55' W 075°08'0 0.3
2018-May-17 22:28N 38°55' W 075°08'0 0.2
2018-May-17 21:46N 38°55' W 075°08'0 0.0
2018-May-17 21:31N 38°55' W 075°08'0 0.1
2018-May-17 20:58N 38°55' W 075°08'0 0.2
2018-May-17 20:30N 38°55' W 075°08'2 2.5
2018-May-17 19:43N 38°56' W 075°10'1 2.4
2018-May-17 19:30N 38°57' W 075°10'0 0.0
2018-May-17 11:37N 38°57' W 075°11'0 0.2
2018-May-17 11:30N 38°57' W 075°11'0 0.7
2018-May-17 11:00N 38°57' W 075°11'1 1.7
2018-May-17 10:30N 38°56' W 075°11'4 7.6
2018-May-17 09:58N 38°55' W 075°06'611.7
2018-May-17 09:30N 39°00' W 075°08'612.5
2018-May-17 09:00N 39°06' W 075°12'613.0
2018-May-17 08:30N 39°11' W 075°16'713.2
2018-May-17 08:00N 39°17' W 075°21'713.0
2018-May-17 07:30N 39°21' W 075°27'612.0
2018-May-17 07:00N 39°26' W 075°32'510.1
2018-May-17 06:30N 39°31' W 075°33'5 9.9
2018-May-17 06:00N 39°36' W 075°34'4 8.2
2018-May-17 05:30N 39°40' W 075°32'4 9.1
2018-May-17 05:01N 39°44' W 075°30'4 8.6
2018-May-17 04:30N 39°47' W 075°27'4 8.5
2018-May-17 04:00N 39°50' W 075°22'4 8.1
2018-May-17 03:30N 39°51' W 075°17'4 7.0
2018-May-17 03:00N 39°52' W 075°13'0 0.1
2018-May-17 02:30N 39°52' W 075°13'0 0.0
2018-May-17 01:59N 39°52' W 075°13'0 0.0
2018-May-17 01:29N 39°52' W 075°13'0 0.0
2018-May-17 00:59N 39°52' W 075°13'0 0.0
2018-May-17 00:29N 39°52' W 075°13'0 0.0
2018-May-16 23:59N 39°52' W 075°13'0 0.0
2018-May-16 23:29N 39°52' W 075°13'0 0.0
2018-May-16 22:59N 39°52' W 075°13'0 0.0
2018-May-16 22:29N 39°52' W 075°13'0 0.0
2018-May-16 21:59N 39°52' W 075°13'0 0.0
2018-May-16 21:29N 39°52' W 075°13'0 0.0
2018-May-16 20:59N 39°52' W 075°13'0 0.0
2018-May-16 20:29N 39°52' W 075°13'0 0.0
2018-May-16 19:59N 39°52' W 075°13'0 0.0
2018-May-16 19:29N 39°52' W 075°13'0 0.0
2018-May-16 18:59N 39°52' W 075°13'0 0.0
2018-May-16 18:29N 39°52' W 075°13'0 0.0
2018-May-16 17:59N 39°52' W 075°13'0 0.0
2018-May-16 17:29N 39°52' W 075°13'0 0.0
2018-May-16 16:59N 39°52' W 075°13'0 0.0
2018-May-16 16:26N 39°52' W 075°13'0 0.0
2018-May-16 15:59N 39°52' W 075°13'0 0.0
2018-May-16 15:29N 39°52' W 075°13'0 0.0
2018-May-16 14:59N 39°52' W 075°13'0 0.0
2018-May-16 14:29N 39°52' W 075°13'0 0.0
2018-May-16 13:59N 39°52' W 075°13'0 0.0
2018-May-16 13:29N 39°52' W 075°13'0 0.0
2018-May-16 12:59N 39°52' W 075°13'0 0.0
2018-May-16 12:29N 39°52' W 075°13'0 0.0
2018-May-16 12:00N 39°52' W 075°13'0 0.0
2018-May-16 11:30N 39°52' W 075°13'2 3.7
2018-May-16 11:00N 39°51' W 075°15'4 7.8
2018-May-16 10:30N 39°51' W 075°20'4 8.2
2018-May-16 10:00N 39°48' W 075°24'4 8.6
2018-May-16 09:30N 39°46' W 075°29'4 8.5
2018-May-16 09:00N 39°42' W 075°31'4 8.4
2018-May-16 08:31N 39°38' W 075°34'4 7.5
2018-May-16 08:00N 39°35' W 075°33'4 8.3
2018-May-16 07:30N 39°30' W 075°33'4 8.2
2018-May-16 07:00N 39°26' W 075°32'4 9.0
2018-May-16 06:30N 39°23' W 075°29'5 9.3
2018-May-16 06:00N 39°20' W 075°25'5 9.5
2018-May-16 05:30N 39°16' W 075°20'  
Track history (hours):
 
Tides and Currents Weather Stations Pressure Air Temp Water Temp Dewpoint Dewpoint Depression Visibility Wind Speed Wind Dir Waves Ship Positions

Osg Vision

Owner: OSG Ship Management Inc., Tampa, FL. More information available from US FCC via Universal Licensing System and Coast Guard Vessel Documentation Center.

Last reported at 2018-May-26 04:00 UTC. Time now 2018-May-26 04:06 UTC.
Position N 39°30' W 075°33'.

Length 213 m; draft 7.9 m.

Type: Tanker. MMSI: 369235000.

Date/timePositionNaut miles runAvg speedWind from/ knotsBaromVisibWave heightAir tempDewpointWater temp
2018-May-26 04:00N 39°30' W 075°33'611.1
2018-May-26 03:30N 39°36' W 075°34'5 9.3
2018-May-26 03:00N 39°40' W 075°32'510.1
2018-May-26 02:30N 39°45' W 075°30'5 9.3
2018-May-26 02:00N 39°48' W 075°25'1 1.7
2018-May-26 01:28N 39°49' W 075°24'0 0.0
2018-May-26 00:55N 39°49' W 075°24'0 0.0
2018-May-26 00:28N 39°49' W 075°24'0 0.0
2018-May-25 23:58N 39°49' W 075°24'0 0.0
2018-May-25 23:28N 39°49' W 075°24'0 0.0
2018-May-25 22:58N 39°49' W 075°24'0 0.0
2018-May-25 22:28N 39°49' W 075°24'0 0.0
2018-May-25 21:58N 39°49' W 075°24'0 0.0
2018-May-25 21:28N 39°49' W 075°24'0 0.0
2018-May-25 20:58N 39°49' W 075°24'0 0.0
2018-May-25 20:28N 39°49' W 075°24'0 0.0
2018-May-25 19:58N 39°49' W 075°24'0 0.0
2018-May-25 19:28N 39°49' W 075°24'0 0.0
2018-May-25 18:55N 39°49' W 075°24'0 0.0
2018-May-25 18:28N 39°49' W 075°24'0 0.0
2018-May-25 17:58N 39°49' W 075°24'0 0.0
2018-May-25 17:25N 39°49' W 075°24'0 0.0
2018-May-25 16:52N 39°49' W 075°24'0 0.0
2018-May-25 16:28N 39°49' W 075°24'0 0.2
2018-May-25 16:00N 39°49' W 075°25'3 5.6
2018-May-25 15:30N 39°47' W 075°27'510.7
2018-May-25 15:00N 39°42' W 075°31'610.9
2018-May-25 14:30N 39°38' W 075°35'611.0
2018-May-25 14:00N 39°32' W 075°33'611.2
2018-May-25 13:30N 39°27' W 075°33'612.0
2018-May-25 13:00N 39°22' W 075°28'612.1
2018-May-25 12:30N 39°18' W 075°22'612.0
2018-May-25 12:00N 39°13' W 075°18'611.8
2018-May-25 11:31N 39°08' W 075°14'611.6
2018-May-25 11:01N 39°03' W 075°10'612.1
2018-May-25 10:30N 38°57' W 075°07'2 4.9
2018-May-25 10:00N 38°55' W 075°09'2 4.1
2018-May-25 09:30N 38°57' W 075°11'0 0.0
2018-May-25 08:51N 38°57' W 075°11'0 0.0
2018-May-25 08:30N 38°57' W 075°11'0 0.0
2018-May-25 08:00N 38°57' W 075°11'0 0.0
2018-May-25 07:27N 38°57' W 075°11'0 0.0
2018-May-25 06:57N 38°57' W 075°11'0 0.3
2018-May-25 06:30N 38°57' W 075°10'0 0.4
2018-May-25 05:48N 38°57' W 075°10'0 0.1
2018-May-25 05:30N 38°57' W 075°10'0 0.0
2018-May-25 05:00N 38°57' W 075°10'0 0.0
2018-May-25 04:30N 38°57' W 075°10'0 0.0
2018-May-25 04:00N 38°57' W 075°10'0 0.0
2018-May-25 03:27N 38°57' W 075°10'0 0.1
2018-May-25 03:00N 38°57' W 075°10'0 0.1
2018-May-25 02:30N 38°57' W 075°10'2 3.8
2018-May-25 02:00N 38°55' W 075°09'3 5.9
2018-May-25 01:30N 38°58' W 075°07'612.5
2018-May-25 01:00N 39°04' W 075°11'611.8
2018-May-25 00:30N 39°09' W 075°15'511.0
2018-May-25 00:00N 39°14' W 075°18'5 9.9
2018-May-24 23:30N 39°17' W 075°22'4 7.8
2018-May-24 23:00N 39°20' W 075°26'4 8.6
2018-May-24 22:30N 39°24' W 075°29'4 8.8
2018-May-24 22:01N 39°27' W 075°33'4 8.2
2018-May-24 21:31N 39°31' W 075°33'4 7.8
2018-May-24 21:00N 39°35' W 075°35'1 1.1
2018-May-24 20:31N 39°35' W 075°35'0 0.0
2018-May-24 19:59N 39°35' W 075°35'0 0.0
2018-May-24 19:29N 39°35' W 075°35'0 0.0
2018-May-24 18:59N 39°35' W 075°35'0 0.0
2018-May-24 18:29N 39°35' W 075°35'0 0.0
2018-May-24 17:59N 39°35' W 075°35'0 0.0
2018-May-24 17:29N 39°35' W 075°35'0 0.0
2018-May-24 16:59N 39°35' W 075°35'0 0.0
2018-May-24 16:29N 39°35' W 075°35'0 0.0
2018-May-24 15:59N 39°35' W 075°35'0 0.0
2018-May-24 15:29N 39°35' W 075°35'0 0.0
2018-May-24 14:59N 39°35' W 075°35'0 0.0
2018-May-24 14:29N 39°35' W 075°35'0 0.0
2018-May-24 13:59N 39°35' W 075°35'0 0.0
2018-May-24 13:29N 39°35' W 075°35'0 0.0
2018-May-24 08:59N 39°35' W 075°35'0 0.0
2018-May-24 08:29N 39°35' W 075°35'0 0.0
2018-May-24 07:59N 39°35' W 075°35'0 0.0
2018-May-24 07:29N 39°35' W 075°35'0 0.0
2018-May-24 06:59N 39°35' W 075°35'0 0.0
2018-May-24 06:29N 39°35' W 075°35'0 0.0
2018-May-24 05:59N 39°35' W 075°35'0 0.0
2018-May-24 05:29N 39°35' W 075°35'0 0.0
2018-May-24 04:59N 39°35' W 075°35'0 0.0
2018-May-24 04:29N 39°35' W 075°35'0 0.0
2018-May-24 03:59N 39°35' W 075°35'0 0.0
2018-May-24 03:29N 39°35' W 075°35'0 0.0
2018-May-24 02:59N 39°35' W 075°35'0 0.0
2018-May-24 02:29N 39°35' W 075°35'0 0.0
2018-May-24 01:59N 39°35' W 075°35'0 0.0
2018-May-24 01:30N 39°35' W 075°35'3 5.1
2018-May-24 01:00N 39°33' W 075°33'510.1
2018-May-24 00:30N 39°28' W 075°34'510.0
2018-May-24 00:00N 39°24' W 075°30'510.8
2018-May-23 23:30N 39°20' W 075°25'611.1
2018-May-23 23:00N 39°16' W 075°21'611.1
2018-May-23 22:30N 39°12' W 075°17'510.9
2018-May-23 22:01N 39°07' W 075°13'510.9
2018-May-23 21:30N 39°02' W 075°10'611.3
2018-May-23 21:00N 38°57' W 075°07'2 2.8
2018-May-23 20:16N 38°55' W 075°08'0 0.0
2018-May-23 20:00N 38°55' W 075°08'0 0.0
2018-May-23 19:28N 38°55' W 075°08'0 0.0
2018-May-23 18:55N 38°55' W 075°08'0 0.0
2018-May-23 18:28N 38°55' W 075°08'0 0.1
2018-May-23 17:55N 38°55' W 075°08'0 0.1
2018-May-23 17:16N 38°55' W 075°08'0 0.3
2018-May-23 16:58N 38°55' W 075°09'0 0.2
2018-May-23 16:28N 38°55' W 075°08'0 0.2
2018-May-23 15:58N 38°55' W 075°08'0 0.1
2018-May-23 15:16N 38°55' W 075°08'0 0.0
2018-May-23 14:58N 38°55' W 075°08'0 0.0
2018-May-23 14:28N 38°55' W 075°08'0 0.0
2018-May-23 13:58N 38°55' W 075°08'1 1.7
2018-May-23 13:30N 38°55' W 075°09'24 2.2
2018-May-23 02:43N 39°17' W 075°22'312.4
2018-May-23 02:30N 39°19' W 075°24'612.1
2018-May-23 02:00N 39°23' W 075°29'611.7
2018-May-23 01:29N 39°28' W 075°34'511.3
2018-May-23 01:01N 39°34' W 075°33'5 9.8
2018-May-23 00:30N 39°38' W 075°34'510.2
2018-May-23 00:00N 39°43' W 075°30'5 9.6
2018-May-22 23:31N 39°47' W 075°27'5 9.4
2018-May-22 23:00N 39°50' W 075°22'4 8.7
2018-May-22 22:31N 39°51' W 075°17'3 6.6
2018-May-22 22:00N 39°52' W 075°13'0 0.0
2018-May-22 21:30N 39°52' W 075°13'0 0.0
2018-May-22 20:59N 39°52' W 075°13'0 0.0
2018-May-22 20:29N 39°52' W 075°13'0 0.0
2018-May-22 19:59N 39°52' W 075°13'0 0.0
2018-May-22 19:29N 39°52' W 075°13'0 0.0
2018-May-22 18:59N 39°52' W 075°13'0 0.0
2018-May-22 18:29N 39°52' W 075°13'0 0.0
2018-May-22 17:59N 39°52' W 075°13'0 0.0
2018-May-22 17:29N 39°52' W 075°13'0 0.0
2018-May-22 16:59N 39°52' W 075°13'0 0.0
2018-May-22 16:29N 39°52' W 075°13'0 0.0
2018-May-22 15:59N 39°52' W 075°13'0 0.0
2018-May-22 15:29N 39°52' W 075°13'0 0.0
2018-May-22 14:59N 39°52' W 075°13'0 0.0
2018-May-22 14:29N 39°52' W 075°13'0 0.0
2018-May-22 13:59N 39°52' W 075°13'0 0.0
2018-May-22 13:29N 39°52' W 075°13'0 0.0
2018-May-22 12:59N 39°52' W 075°13'0 0.0
2018-May-22 12:29N 39°52' W 075°13'0 0.0
2018-May-22 11:59N 39°52' W 075°13'0 0.0
2018-May-22 11:29N 39°52' W 075°13'0 0.0
2018-May-22 10:59N 39°52' W 075°13'0 0.0
2018-May-22 10:29N 39°52' W 075°13'0 0.0
2018-May-22 09:59N 39°52' W 075°13'0 0.0
2018-May-22 09:29N 39°52' W 075°13'0 0.0
2018-May-22 08:59N 39°52' W 075°13'0 0.0
2018-May-22 08:29N 39°52' W 075°13'0 0.0
2018-May-22 07:59N 39°52' W 075°13'0 0.0
2018-May-22 07:29N 39°52' W 075°13'0 0.0
2018-May-22 06:59N 39°52' W 075°13'0 0.0
2018-May-22 06:29N 39°52' W 075°13'0 0.0
2018-May-22 05:59N 39°52' W 075°13'0 0.0
2018-May-22 05:29N 39°52' W 075°13'0 0.0
2018-May-22 04:59N 39°52' W 075°13'0 0.0
2018-May-22 04:29N 39°52' W 075°13'0 0.0
2018-May-22 03:59N 39°52' W 075°13'0 0.0
2018-May-22 03:29N 39°52' W 075°13'0 0.0
2018-May-22 02:59N 39°52' W 075°13'0 0.0
2018-May-22 02:29N 39°52' W 075°13'0 0.1
2018-May-22 02:00N 39°52' W 075°13'2 3.7
2018-May-22 01:30N 39°51' W 075°15'3 5.8
2018-May-22 01:00N 39°51' W 075°19'5 9.8
2018-May-22 00:30N 39°49' W 075°24'510.1
2018-May-22 00:00N 39°45' W 075°29'510.6
2018-May-21 23:31N 39°40' W 075°32'5 9.4
2018-May-21 23:01N 39°36' W 075°34'510.7
2018-May-21 22:30N 39°30' W 075°33'510.2
2018-May-21 21:59N 39°25' W 075°31'611.5
2018-May-21 21:30N 39°21' W 075°27'611.5
2018-May-21 21:00N 39°17' W 075°22'611.2
2018-May-21 20:30N 39°13' W 075°17'611.1
2018-May-21 20:01N 39°08' W 075°14'611.0
2018-May-21 19:31N 39°03' W 075°10'611.7
2018-May-21 19:01N 38°58' W 075°07'3 3.3
2018-May-21 18:11N 38°56' W 075°09'0 0.1
2018-May-21 12:43N 38°55' W 075°09'0 0.0
2018-May-21 12:16N 38°55' W 075°09'0 0.1
2018-May-21 11:46N 38°55' W 075°09'0 0.0
2018-May-21 10:37N 38°55' W 075°09'0 0.2
2018-May-21 10:18N 38°55' W 075°09'0 0.2
2018-May-21 10:00N 38°55' W 075°09'0 0.6
2018-May-21 09:30N 38°55' W 075°09'2 5.0
2018-May-21 09:00N 38°56' W 075°06'612.3
2018-May-21 08:30N 39°02' W 075°09'611.4
2018-May-21 08:00N 39°07' W 075°13'510.6
2018-May-21 07:30N 39°11' W 075°17'5 9.4
2018-May-21 07:00N 39°15' W 075°19'4 9.0
2018-May-21 06:30N 39°19' W 075°23'4 8.8
2018-May-21 06:00N 39°22' W 075°27'5 9.0
2018-May-21 05:30N 39°25' W 075°31'4 8.9
2018-May-21 05:00N 39°29' W 075°34'510.1
2018-May-21 04:30N 39°34' W 075°33'5 9.8
2018-May-21 04:00N 39°39' W 075°33'611.8
2018-May-21 03:30N 39°44' W 075°30'612.1
2018-May-21 03:00N 39°49' W 075°24'612.2
2018-May-21 02:30N 39°51' W 075°17'1 1.2
2018-May-21 02:00N 39°51' W 075°16'0 0.0
2018-May-21 01:30N 39°51' W 075°16'0 0.0
2018-May-21 01:00N 39°51' W 075°16'0 0.0
2018-May-21 00:30N 39°51' W 075°16'0 0.0
2018-May-21 00:00N 39°51' W 075°16'0 0.0
2018-May-20 23:30N 39°51' W 075°16'0 0.0
2018-May-20 23:00N 39°51' W 075°16'0 0.0
2018-May-20 22:30N 39°51' W 075°16'0 0.0
2018-May-20 22:00N 39°51' W 075°16'0 0.0
2018-May-20 21:31N 39°51' W 075°16'0 0.0
2018-May-20 21:00N 39°51' W 075°16'0 0.0
2018-May-20 20:30N 39°51' W 075°16'0 0.0
2018-May-20 20:00N 39°51' W 075°16'0 0.0
2018-May-20 19:30N 39°51' W 075°16'0 0.0
2018-May-20 19:00N 39°51' W 075°16'0 0.0
2018-May-20 18:30N 39°51' W 075°16'0 0.0
2018-May-20 18:00N 39°51' W 075°16'0 0.0
2018-May-20 17:30N 39°51' W 075°16'0 0.0
2018-May-20 17:00N 39°51' W 075°16'0 0.0
2018-May-20 16:30N 39°51' W 075°16'0 0.0
2018-May-20 16:00N 39°51' W 075°16'0 0.0
2018-May-20 15:30N 39°51' W 075°16'0 0.0
2018-May-20 15:00N 39°51' W 075°16'0 0.0
2018-May-20 14:30N 39°51' W 075°16'0 0.0
2018-May-20 14:00N 39°51' W 075°16'0 0.0
2018-May-20 13:30N 39°51' W 075°16'0 0.0
2018-May-20 13:01N 39°51' W 075°16'0 0.0
2018-May-20 12:31N 39°51' W 075°16'0 0.0
2018-May-20 12:00N 39°51' W 075°16'0 0.1
2018-May-20 11:30N 39°51' W 075°16'2 4.9
2018-May-20 11:00N 39°51' W 075°19'5 9.7
2018-May-20 10:30N 39°48' W 075°25'510.4
2018-May-20 10:00N 39°45' W 075°30'510.7
2018-May-20 09:30N 39°40' W 075°32'5 9.3
2018-May-20 09:00N 39°35' W 075°34'510.6
2018-May-20 08:30N 39°30' W 075°33'510.1
2018-May-20 08:00N 39°25' W 075°31'611.1
2018-May-20 07:30N 39°21' W 075°26'611.6
2018-May-20 07:00N 39°17' W 075°21'611.8
2018-May-20 06:30N 39°12' W 075°17'611.5
2018-May-20 06:00N 39°07' W 075°13'611.3
2018-May-20 05:30N 39°02' W 075°10'611.5
2018-May-20 05:00N 38°57' W 075°07'2 3.7
2018-May-20 04:26N 38°55' W 075°08'1 2.0
2018-May-20 03:58N 38°56' W 075°09'0 0.0
2018-May-20 03:30N 38°55' W 075°09'0 0.0
2018-May-20 02:27N 38°55' W 075°09'0 0.1
2018-May-20 00:21N 38°55' W 075°09'2 5.5
2018-May-19 23:56N 38°57' W 075°10'0 0.8
2018-May-19 23:28N 38°57' W 075°11'0 0.1
2018-May-19 16:01N 38°58' W 075°11'0 0.3
2018-May-19 16:00N 38°58' W 075°11'1 1.2
2018-May-19 15:30N 38°58' W 075°11'510.0
2018-May-19 15:00N 38°55' W 075°07'4 8.0
2018-May-19 14:30N 38°59' W 075°08'5 9.6
2018-May-19 14:00N 39°03' W 075°10'510.1
2018-May-19 13:30N 39°07' W 075°13'510.9
2018-May-19 13:00N 39°12' W 075°17'612.4
2018-May-19 12:30N 39°17' W 075°22'713.3
2018-May-19 12:00N 39°22' W 075°28'713.5
2018-May-19 11:30N 39°27' W 075°33'612.8
2018-May-19 11:00N 39°34' W 075°33'2 4.8
2018-May-19 10:29N 39°35' W 075°35'0 0.0
2018-May-19 09:59N 39°35' W 075°35'0 0.0
2018-May-19 09:29N 39°35' W 075°35'0 0.0
2018-May-19 08:59N 39°35' W 075°35'0 0.0
2018-May-19 08:29N 39°35' W 075°35'0 0.0
2018-May-19 07:59N 39°35' W 075°35'0 0.0
2018-May-19 07:29N 39°35' W 075°35'0 0.0
2018-May-19 06:59N 39°35' W 075°35'0 0.0
2018-May-19 06:29N 39°35' W 075°35'0 0.0
2018-May-19 05:59N 39°35' W 075°35'0 0.0
2018-May-19 05:29N 39°35' W 075°35'0 0.0
2018-May-19 04:59N 39°35' W 075°35'0 0.0
2018-May-19 04:29N 39°35' W 075°35'0 0.0
2018-May-19 03:59N 39°35' W 075°35'0 0.0
2018-May-19 03:29N 39°35' W 075°35'0 0.0
2018-May-19 02:59N 39°35' W 075°35'0 0.0
2018-May-19 02:30N 39°35' W 075°35'0 0.0
2018-May-19 01:59N 39°35' W 075°35'0 0.0
2018-May-19 01:30N 39°35' W 075°35'0 0.0
2018-May-19 00:59N 39°35' W 075°35'0 0.0
2018-May-19 00:29N 39°35' W 075°35'0 0.0
2018-May-18 23:59N 39°35' W 075°35'0 0.0
2018-May-18 23:30N 39°35' W 075°35'0 0.0
2018-May-18 22:59N 39°35' W 075°35'0 0.0
2018-May-18 22:29N 39°35' W 075°35'0 0.0
2018-May-18 22:00N 39°35' W 075°35'0 0.0
2018-May-18 21:29N 39°35' W 075°35'0 0.0
2018-May-18 20:59N 39°35' W 075°35'0 0.0
2018-May-18 20:30N 39°35' W 075°35'0 0.0
2018-May-18 19:59N 39°35' W 075°35'0 0.0
2018-May-18 19:29N 39°35' W 075°35'0 0.0
2018-May-18 18:59N 39°35' W 075°35'0 0.0
2018-May-18 18:29N 39°35' W 075°35'0 0.0
2018-May-18 17:59N 39°35' W 075°35'0 0.0
2018-May-18 17:29N 39°35' W 075°35'0 0.0
2018-May-18 16:59N 39°35' W 075°35'0 0.0
2018-May-18 16:29N 39°35' W 075°35'0 0.0
2018-May-18 15:59N 39°35' W 075°35'0 0.0
2018-May-18 15:29N 39°35' W 075°35'0 0.0
2018-May-18 14:59N 39°35' W 075°35'0 0.0
2018-May-18 14:29N 39°35' W 075°35'0 0.0
2018-May-18 13:59N 39°35' W 075°35'0 0.0
2018-May-18 13:29N 39°35' W 075°35'0 0.0
2018-May-18 12:59N 39°35' W 075°35'0 0.0
2018-May-18 12:29N 39°35' W 075°35'0 0.0
2018-May-18 11:59N 39°35' W 075°35'0 0.0
2018-May-18 11:29N 39°35' W 075°35'0 0.0
2018-May-18 10:59N 39°35' W 075°35'0 0.0
2018-May-18 10:29N 39°35' W 075°35'0 0.0
2018-May-18 09:59N 39°35' W 075°35'0 0.0
2018-May-18 09:29N 39°35' W 075°35'0 0.0
2018-May-18 08:59N 39°35' W 075°35'0 0.0
2018-May-18 08:29N 39°35' W 075°35'0 0.2
2018-May-18 08:00N 39°35' W 075°35'2 4.9
2018-May-18 07:30N 39°33' W 075°33'4 7.1
2018-May-18 07:00N 39°30' W 075°33'4 9.0
2018-May-18 06:30N 39°26' W 075°32'510.1
2018-May-18 06:00N 39°22' W 075°27'510.7
2018-May-18 05:30N 39°18' W 075°23'611.3
2018-May-18 05:00N 39°14' W 075°18'611.2
2018-May-18 04:30N 39°09' W 075°14'510.8
2018-May-18 04:00N 39°04' W 075°11'510.8
2018-May-18 03:30N 38°59' W 075°08'5 7.9
2018-May-18 02:55N 38°55' W 075°08'1 1.9
2018-May-18 02:25N 38°55' W 075°08'0 0.0
2018-May-18 01:52N 38°55' W 075°08'0 0.0
2018-May-18 01:25N 38°55' W 075°08'0 0.0
2018-May-17 22:46N 38°55' W 075°08'0 0.3
2018-May-17 22:28N 38°55' W 075°08'0 0.2
2018-May-17 21:46N 38°55' W 075°08'0 0.0
2018-May-17 21:31N 38°55' W 075°08'0 0.1
2018-May-17 20:58N 38°55' W 075°08'0 0.2
2018-May-17 20:30N 38°55' W 075°08'2 2.5
2018-May-17 19:43N 38°56' W 075°10'1 2.4
2018-May-17 19:30N 38°57' W 075°10'0 0.0
2018-May-17 11:37N 38°57' W 075°11'0 0.2
2018-May-17 11:30N 38°57' W 075°11'0 0.7
2018-May-17 11:00N 38°57' W 075°11'1 1.7
2018-May-17 10:30N 38°56' W 075°11'4 7.6
2018-May-17 09:58N 38°55' W 075°06'611.7
2018-May-17 09:30N 39°00' W 075°08'612.5
2018-May-17 09:00N 39°06' W 075°12'613.0
2018-May-17 08:30N 39°11' W 075°16'713.2
2018-May-17 08:00N 39°17' W 075°21'713.0
2018-May-17 07:30N 39°21' W 075°27'612.0
2018-May-17 07:00N 39°26' W 075°32'510.1
2018-May-17 06:30N 39°31' W 075°33'5 9.9
2018-May-17 06:00N 39°36' W 075°34'4 8.2
2018-May-17 05:30N 39°40' W 075°32'4 9.1
2018-May-17 05:01N 39°44' W 075°30'4 8.6
2018-May-17 04:30N 39°47' W 075°27'4 8.5
2018-May-17 04:00N 39°50' W 075°22'4 8.1
2018-May-17 03:30N 39°51' W 075°17'4 7.0
2018-May-17 03:00N 39°52' W 075°13'0 0.1
2018-May-17 02:30N 39°52' W 075°13'0 0.0
2018-May-17 01:59N 39°52' W 075°13'0 0.0
2018-May-17 01:29N 39°52' W 075°13'0 0.0
2018-May-17 00:59N 39°52' W 075°13'0 0.0
2018-May-17 00:29N 39°52' W 075°13'0 0.0
2018-May-16 23:59N 39°52' W 075°13'0 0.0
2018-May-16 23:29N 39°52' W 075°13'0 0.0
2018-May-16 22:59N 39°52' W 075°13'0 0.0
2018-May-16 22:29N 39°52' W 075°13'0 0.0
2018-May-16 21:59N 39°52' W 075°13'0 0.0
2018-May-16 21:29N 39°52' W 075°13'0 0.0
2018-May-16 20:59N 39°52' W 075°13'0 0.0
2018-May-16 20:29N 39°52' W 075°13'0 0.0
2018-May-16 19:59N 39°52' W 075°13'0 0.0
2018-May-16 19:29N 39°52' W 075°13'0 0.0
2018-May-16 18:59N 39°52' W 075°13'0 0.0
2018-May-16 18:29N 39°52' W 075°13'0 0.0
2018-May-16 17:59N 39°52' W 075°13'0 0.0
2018-May-16 17:29N 39°52' W 075°13'0 0.0
2018-May-16 16:59N 39°52' W 075°13'0 0.0
2018-May-16 16:26N 39°52' W 075°13'0 0.0
2018-May-16 15:59N 39°52' W 075°13'0 0.0
2018-May-16 15:29N 39°52' W 075°13'0 0.0
2018-May-16 14:59N 39°52' W 075°13'0 0.0
2018-May-16 14:29N 39°52' W 075°13'0 0.0
2018-May-16 13:59N 39°52' W 075°13'0 0.0
2018-May-16 13:29N 39°52' W 075°13'0 0.0
2018-May-16 12:59N 39°52' W 075°13'0 0.0
2018-May-16 12:29N 39°52' W 075°13'0 0.0
2018-May-16 12:00N 39°52' W 075°13'0 0.0
2018-May-16 11:30N 39°52' W 075°13'2 3.7
2018-May-16 11:00N 39°51' W 075°15'4 7.8
2018-May-16 10:30N 39°51' W 075°20'4 8.2
2018-May-16 10:00N 39°48' W 075°24'4 8.6
2018-May-16 09:30N 39°46' W 075°29'4 8.5
2018-May-16 09:00N 39°42' W 075°31'4 8.4
2018-May-16 08:31N 39°38' W 075°34'4 7.5
2018-May-16 08:00N 39°35' W 075°33'4 8.3
2018-May-16 07:30N 39°30' W 075°33'4 8.2
2018-May-16 07:00N 39°26' W 075°32'4 9.0
2018-May-16 06:30N 39°23' W 075°29'5 9.3
2018-May-16 06:00N 39°20' W 075°25'5 9.5
2018-May-16 05:30N 39°16' W 075°20'  

Dump ship's entire track history